Time;durP1;ratioP1;P1;durP2;ratioP2;P2;SDS_P1;SDS_P2;PMS_P1;PMS_P2;Temp;Humidity;BMP_temperature;BMP_pressure;BME280_temperature;BME280_humidity;BME280_pressure;Samples;Min_cycle;Max_cycle;Signal;HPM_P1;HPM_P2
2023/03/31 00:00:47;;;;;;;20.73;12.60;;;0.10;99.90;;;;;;5006231;28;20050;-72
2023/03/31 00:03:20;;;;;;;23.45;12.15;;;0.10;99.90;;;;;;5001371;28;20058;-73
2023/03/31 00:05:48;;;;;;;;;;;0.20;99.90;;;;;;5003558;28;20331;-73
2023/03/31 00:08:16;;;;;;;20.55;12.38;;;0.10;99.90;;;;;;4991185;28;19925;-72
2023/03/31 00:10:46;;;;;;;22.50;13.43;;;0.10;99.90;;;;;;5005581;28;20145;-72
2023/03/31 00:13:15;;;;;;;22.23;13.65;;;0.20;99.90;;;;;;5006424;28;20041;-73
2023/03/31 00:15:42;;;;;;;22.50;12.50;;;0.20;99.90;;;;;;5005252;28;20062;-72
2023/03/31 00:18:10;;;;;;;23.45;13.80;;;0.20;99.90;;;;;;5008381;28;20149;-72
2023/03/31 00:20:41;;;;;;;23.02;14.00;;;0.20;99.90;;;;;;5008973;28;20056;-73
2023/03/31 00:23:09;;;;;;;22.00;13.27;;;0.20;99.90;;;;;;4996083;28;20100;-73
2023/03/31 00:25:40;;;;;;;24.45;14.25;;;0.20;99.90;;;;;;4990374;28;20050;-73
2023/03/31 00:28:08;;;;;;;24.02;14.02;;;0.30;99.90;;;;;;4997511;28;20411;-72
2023/03/31 00:30:35;;;;;;;24.83;13.98;;;0.30;99.90;;;;;;5008300;28;20054;-73
2023/03/31 00:33:03;;;;;;;26.13;14.35;;;0.30;99.90;;;;;;4998446;28;20050;-73
2023/03/31 00:35:30;;;;;;;21.23;13.73;;;0.30;99.90;;;;;;5009093;28;20054;-74
2023/03/31 00:37:59;;;;;;;21.88;13.75;;;0.30;99.90;;;;;;5010389;28;20060;-74
2023/03/31 00:40:26;;;;;;;25.13;15.38;;;0.30;99.90;;;;;;5016884;28;20145;-74
2023/03/31 00:42:54;;;;;;;24.73;14.68;;;0.20;99.90;;;;;;4991555;28;20428;-74
2023/03/31 00:45:28;;;;;;;25.50;15.55;;;0.20;99.90;;;;;;4991518;28;20053;-73
2023/03/31 00:48:03;;;;;;;26.63;15.70;;;0.20;99.90;;;;;;5009526;28;20088;-74
2023/03/31 00:50:35;;;;;;;25.15;15.02;;;0.20;99.90;;;;;;5011056;28;20506;-73
2023/03/31 00:53:12;;;;;;;25.73;15.05;;;0.20;99.90;;;;;;5003242;28;20463;-74
2023/03/31 00:55:43;;;;;;;24.95;16.25;;;0.20;99.90;;;;;;5006225;28;20046;-73
2023/03/31 00:58:14;;;;;;;25.65;15.20;;;0.20;99.90;;;;;;5006429;28;20129;-74
2023/03/31 01:00:41;;;;;;;26.40;15.63;;;0.20;99.90;;;;;;4991419;28;20042;-74
2023/03/31 01:03:09;;;;;;;22.70;14.18;;;0.20;99.90;;;;;;4990540;28;20128;-73
2023/03/31 01:05:44;;;;;;;30.73;15.38;;;0.20;99.90;;;;;;4991325;28;20054;-73
2023/03/31 01:08:15;;;;;;;27.52;15.15;;;0.20;99.90;;;;;;4993131;28;20046;-74
2023/03/31 01:10:47;;;;;;;24.80;14.90;;;0.20;99.90;;;;;;5013890;28;20117;-73
2023/03/31 01:13:17;;;;;;;28.73;16.80;;;0.20;99.90;;;;;;5010381;28;20380;-73
2023/03/31 01:15:45;;;;;;;25.65;15.63;;;0.20;99.90;;;;;;5005412;28;20050;-73
2023/03/31 01:18:15;;;;;;;30.10;16.33;;;0.30;99.90;;;;;;4994687;28;20062;-73
2023/03/31 01:21:38;;;;;;;28.42;16.55;;;0.30;99.90;;;;;;5003538;28;20049;-73
2023/03/31 01:25:14;;;;;;;25.05;15.75;;;0.30;99.90;;;;;;5005970;28;20053;-73
2023/03/31 01:28:10;;;;;;;28.65;17.15;;;0.20;99.90;;;;;;4994565;28;20089;-73
2023/03/31 01:31:12;;;;;;;24.33;16.23;;;0.20;99.90;;;;;;5011819;28;20058;-72
2023/03/31 01:34:23;;;;;;;32.92;17.75;;;0.20;99.90;;;;;;5009812;28;20050;-73
2023/03/31 01:37:44;;;;;;;30.77;16.35;;;0.20;99.90;;;;;;5004816;28;20399;-74
2023/03/31 01:40:35;;;;;;;26.45;16.65;;;0.10;99.90;;;;;;4962967;28;20486;-74
2023/03/31 01:43:10;;;;;;;26.92;16.45;;;0.10;99.90;;;;;;4992784;28;20042;-73
2023/03/31 01:45:55;;;;;;;33.97;15.68;;;0.10;99.90;;;;;;4993039;28;20085;-74
2023/03/31 01:48:35;;;;;;;27.55;15.90;;;0.10;99.90;;;;;;5000260;28;20046;-74
2023/03/31 01:51:07;;;;;;;26.67;16.27;;;0.10;99.90;;;;;;5001408;28;20065;-74
2023/03/31 01:53:43;;;;;;;29.00;17.23;;;0.10;99.90;;;;;;5004406;28;20058;-73
2023/03/31 01:56:18;;;;;;;24.65;15.55;;;0.10;99.90;;;;;;5010201;28;20058;-73
2023/03/31 01:58:54;;;;;;;29.38;18.30;;;0.00;99.90;;;;;;5012202;28;20534;-74
2023/03/31 02:01:28;;;;;;;27.05;15.75;;;0.00;99.90;;;;;;5013258;28;20057;-74
2023/03/31 02:03:59;;;;;;;25.05;15.95;;;0.10;99.90;;;;;;4994215;28;20158;-74
2023/03/31 02:06:31;;;;;;;27.73;16.17;;;0.00;99.90;;;;;;5008996;28;20415;-74
2023/03/31 02:09:03;;;;;;;30.83;17.27;;;0.00;99.90;;;;;;5025640;28;20050;-74
2023/03/31 02:11:34;;;;;;;26.27;16.27;;;-0.10;99.90;;;;;;5028353;28;20053;-74
2023/03/31 02:14:08;;;;;;;27.38;16.83;;;-0.10;99.90;;;;;;4994197;28;20474;-73
2023/03/31 02:17:01;;;;;;;27.02;15.88;;;-0.10;99.90;;;;;;4991924;28;20046;-73
2023/03/31 02:19:34;;;;;;;30.95;16.77;;;-0.10;99.90;;;;;;4998367;28;20051;-73
2023/03/31 02:22:04;;;;;;;30.90;17.13;;;-0.20;99.90;;;;;;5012994;28;20120;-74
2023/03/31 02:24:33;;;;;;;30.20;16.52;;;-0.10;99.90;;;;;;4983009;28;20045;-73
2023/03/31 02:27:11;;;;;;;28.35;15.95;;;-0.10;99.90;;;;;;5011836;28;20060;-73
2023/03/31 02:29:39;;;;;;;31.23;16.80;;;-0.10;99.90;;;;;;5010191;28;20057;-74
2023/03/31 02:32:18;;;;;;;30.25;18.23;;;-0.10;99.90;;;;;;5011949;28;20073;-73
2023/03/31 02:34:46;;;;;;;29.73;17.88;;;-0.10;99.90;;;;;;5006407;28;20100;-72
2023/03/31 02:37:14;;;;;;;31.38;16.98;;;-0.10;99.90;;;;;;4993356;28;20054;-72
2023/03/31 02:39:49;;;;;;;31.63;18.25;;;0.00;99.90;;;;;;4975676;28;20485;-73
2023/03/31 02:42:19;;;;;;;33.00;17.53;;;0.00;99.90;;;;;;4992508;28;20054;-74
2023/03/31 02:44:49;;;;;;;31.53;17.47;;;0.00;99.90;;;;;;4999309;28;20076;-73
2023/03/31 02:47:19;;;;;;;34.60;17.65;;;0.00;99.90;;;;;;4997729;28;20317;-74
2023/03/31 02:49:51;;;;;;;30.60;17.70;;;0.00;99.90;;;;;;5013833;28;20058;-73
2023/03/31 02:52:44;;;;;;;37.35;19.48;;;0.00;99.90;;;;;;4991852;28;20053;-73
2023/03/31 02:55:37;;;;;;;37.72;21.02;;;0.00;99.90;;;;;;5003817;28;20876;-74
2023/03/31 02:58:51;;;;;;;32.75;18.65;;;0.00;99.90;;;;;;4989887;28;20458;-74
2023/03/31 03:01:39;;;;;;;30.30;17.52;;;0.10;99.90;;;;;;5007743;28;20042;-74
2023/03/31 03:04:32;;;;;;;32.63;17.85;;;0.00;99.90;;;;;;4992109;28;20049;-75
2023/03/31 03:07:10;;;;;;;32.00;17.80;;;0.00;99.90;;;;;;5005206;28;20496;-72
2023/03/31 03:09:52;;;;;;;32.45;17.65;;;0.00;99.90;;;;;;5012346;28;20046;-74
2023/03/31 03:12:25;;;;;;;31.33;18.23;;;0.00;99.90;;;;;;5012165;28;20058;-74
2023/03/31 03:15:02;;;;;;;33.17;18.55;;;0.00;99.90;;;;;;4987562;28;20042;-74
2023/03/31 03:17:36;;;;;;;32.95;18.00;;;0.00;99.90;;;;;;5005703;28;20232;-74
2023/03/31 03:20:08;;;;;;;32.65;17.88;;;0.00;99.90;;;;;;4998321;28;20058;-74
2023/03/31 03:22:36;;;;;;;33.90;18.70;;;0.00;99.90;;;;;;4992459;28;20042;-74
2023/03/31 03:25:04;;;;;;;32.97;18.63;;;0.00;99.90;;;;;;4996078;28;20141;-73
2023/03/31 03:27:32;;;;;;;32.05;19.20;;;0.00;99.90;;;;;;5005287;28;20586;-74
2023/03/31 03:30:03;;;;;;;33.63;18.75;;;0.00;99.90;;;;;;4997838;28;20058;-74
2023/03/31 03:32:32;;;;;;;35.97;19.23;;;0.00;99.90;;;;;;5010912;28;20092;-73
2023/03/31 03:35:00;;;;;;;35.50;19.17;;;0.00;99.90;;;;;;5009328;28;20049;-74
2023/03/31 03:37:27;;;;;;;35.35;18.52;;;0.00;99.90;;;;;;5000518;28;20116;-74
2023/03/31 03:39:55;;;;;;;34.22;19.55;;;0.00;99.90;;;;;;4998857;28;20051;-74
2023/03/31 03:42:22;;;;;;;33.72;17.52;;;0.10;99.90;;;;;;4991995;28;20050;-74
2023/03/31 03:44:50;;;;;;;34.00;19.00;;;0.10;99.90;;;;;;4998673;28;20042;-74
2023/03/31 03:47:19;;;;;;;35.70;19.27;;;0.00;99.90;;;;;;5006181;28;20042;-73
2023/03/31 03:49:47;;;;;;;34.85;17.88;;;-0.10;99.90;;;;;;4997261;28;20068;-74
2023/03/31 03:52:15;;;;;;;33.17;19.00;;;-0.10;99.90;;;;;;4990560;28;20601;-73
2023/03/31 03:54:42;;;;;;;36.25;18.38;;;-0.10;99.90;;;;;;4991582;28;20046;-73
2023/03/31 03:57:10;;;;;;;33.45;18.65;;;-0.10;99.90;;;;;;5009738;28;20062;-73
2023/03/31 03:59:37;;;;;;;31.20;18.08;;;-0.10;99.90;;;;;;5020839;28;20287;-72
2023/03/31 04:02:05;;;;;;;40.40;20.25;;;-0.10;99.90;;;;;;4991462;28;20404;-73
2023/03/31 04:04:34;;;;;;;34.15;18.80;;;0.00;99.90;;;;;;4990433;28;20054;-73
2023/03/31 04:07:01;;;;;;;37.28;18.65;;;0.00;99.90;;;;;;4998672;28;20537;-73
2023/03/31 04:09:29;;;;;;;33.90;18.45;;;0.00;99.90;;;;;;5002450;28;20061;-72
2023/03/31 04:11:56;;;;;;;33.45;18.38;;;0.00;99.90;;;;;;4995177;28;20515;-73
2023/03/31 04:14:24;;;;;;;38.03;18.25;;;0.00;99.90;;;;;;4992403;28;20480;-73
2023/03/31 04:16:55;;;;;;;32.03;17.98;;;0.00;99.90;;;;;;4990442;28;20050;-73
2023/03/31 04:19:24;;;;;;;41.58;19.80;;;0.10;99.90;;;;;;5007044;28;20140;-74
2023/03/31 04:21:57;;;;;;;36.80;18.02;;;0.00;99.90;;;;;;5010701;28;20050;-73
2023/03/31 04:24:31;;;;;;;34.75;18.40;;;0.00;99.90;;;;;;4993879;28;20050;-75
2023/03/31 04:27:01;;;;;;;33.25;18.33;;;0.10;99.90;;;;;;4990629;28;20154;-75
2023/03/31 04:29:32;;;;;;;37.22;18.27;;;0.10;99.90;;;;;;4991142;28;20058;-73
2023/03/31 04:32:00;;;;;;;37.13;18.38;;;0.10;99.90;;;;;;4990412;28;20054;-73
2023/03/31 04:34:33;;;;;;;37.40;20.33;;;0.10;99.90;;;;;;4992955;28;20380;-73
2023/03/31 04:37:03;;;;;;;36.63;19.98;;;0.20;99.90;;;;;;5006554;28;20050;-73
2023/03/31 04:39:31;;;;;;;36.00;17.38;;;0.30;99.90;;;;;;4990850;28;20607;-73
2023/03/31 04:42:00;;;;;;;35.20;18.35;;;0.30;99.90;;;;;;4993025;28;20097;-74
2023/03/31 04:44:28;;;;;;;38.47;20.08;;;0.30;99.90;;;;;;4994062;28;20618;-72
2023/03/31 04:46:55;;;;;;;37.45;18.83;;;0.30;99.90;;;;;;4993669;28;20042;-73
2023/03/31 04:49:23;;;;;;;34.15;18.70;;;0.30;99.90;;;;;;4997530;28;20065;-73
2023/03/31 04:51:50;;;;;;;37.90;19.25;;;0.40;99.90;;;;;;4995102;28;20054;-72
2023/03/31 04:54:19;;;;;;;37.15;19.42;;;0.40;99.90;;;;;;4994921;28;20088;-72
2023/03/31 04:56:47;;;;;;;38.35;19.83;;;0.50;99.90;;;;;;4997468;28;20050;-73
2023/03/31 04:59:15;;;;;;;34.08;18.50;;;0.50;99.90;;;;;;4999062;28;20077;-72
2023/03/31 05:01:44;;;;;;;40.60;20.02;;;0.60;99.90;;;;;;4999732;28;20042;-73
2023/03/31 05:04:12;;;;;;;32.95;18.55;;;0.70;99.90;;;;;;4994603;28;20050;-75
2023/03/31 05:06:39;;;;;;;31.73;18.35;;;0.70;99.90;;;;;;4977534;28;20124;-73
2023/03/31 05:09:08;;;;;;;39.50;18.80;;;0.70;99.90;;;;;;5008089;28;20044;-73
2023/03/31 05:11:37;;;;;;;33.60;18.40;;;0.70;99.90;;;;;;5014346;28;20053;-73
2023/03/31 05:14:04;;;;;;;33.10;18.83;;;0.80;99.90;;;;;;5009237;28;20101;-74
2023/03/31 05:16:32;;;;;;;35.47;19.25;;;0.80;99.90;;;;;;4993492;28;20105;-72
2023/03/31 05:19:03;;;;;;;37.80;18.80;;;0.80;99.90;;;;;;5003662;28;20541;-72
2023/03/31 05:21:31;;;;;;;34.13;19.25;;;0.80;99.90;;;;;;4993365;28;20054;-73
2023/03/31 05:23:58;;;;;;;32.15;18.20;;;1.00;99.90;;;;;;4992830;28;20073;-73
2023/03/31 05:26:26;;;;;;;36.20;18.55;;;1.10;99.90;;;;;;4994898;28;20046;-72
2023/03/31 05:28:55;;;;;;;38.03;20.50;;;1.10;99.90;;;;;;4993147;28;20046;-72
2023/03/31 05:31:23;;;;;;;31.38;17.75;;;1.20;99.90;;;;;;4996312;28;20249;-72
2023/03/31 05:33:50;;;;;;;32.85;18.48;;;1.30;99.90;;;;;;4993571;28;20077;-73
2023/03/31 05:36:18;;;;;;;34.53;17.98;;;1.30;99.90;;;;;;5012811;28;20069;-73
2023/03/31 05:38:46;;;;;;;32.80;19.42;;;1.20;99.90;;;;;;5005661;28;20049;-73
2023/03/31 05:41:15;;;;;;;35.15;18.15;;;1.30;99.90;;;;;;5012190;28;20144;-74
2023/03/31 05:43:43;;;;;;;37.13;19.63;;;1.30;99.90;;;;;;4996365;28;20524;-74
2023/03/31 05:46:12;;;;;;;30.85;17.98;;;1.20;99.90;;;;;;5010045;28;20045;-73
2023/03/31 05:48:40;;;;;;;28.83;17.48;;;1.30;99.90;;;;;;5012806;28;20263;-73
2023/03/31 05:51:07;;;;;;;34.88;17.77;;;1.30;99.90;;;;;;5013301;28;20213;-74
2023/03/31 05:53:35;;;;;;;33.63;18.30;;;1.20;99.90;;;;;;5013117;28;20045;-73
2023/03/31 05:56:06;;;;;;;38.55;19.10;;;1.20;99.90;;;;;;5007440;28;20042;-74
2023/03/31 05:58:35;;;;;;;32.25;18.30;;;1.20;99.90;;;;;;5010288;28;20057;-73
2023/03/31 06:01:06;;;;;;;29.33;17.30;;;1.30;99.90;;;;;;5009500;28;20128;-73
2023/03/31 06:03:35;;;;;;;38.83;19.80;;;1.40;99.90;;;;;;5013596;28;20053;-72
2023/03/31 06:06:05;;;;;;;33.30;19.40;;;1.50;99.90;;;;;;4990796;28;20066;-73
2023/03/31 06:08:32;;;;;;;34.53;19.10;;;1.60;99.90;;;;;;5003008;28;20042;-73
2023/03/31 06:11:00;;;;;;;30.77;18.73;;;1.70;99.90;;;;;;5004237;28;20144;-72
2023/03/31 06:13:27;;;;;;;32.38;19.20;;;1.70;99.90;;;;;;5006985;28;20050;-72
2023/03/31 06:15:56;;;;;;;36.90;19.48;;;1.80;99.90;;;;;;4998414;28;20116;-74
2023/03/31 06:18:25;;;;;;;33.40;19.90;;;1.80;99.90;;;;;;5001622;28;20498;-73
2023/03/31 06:20:54;;;;;;;32.92;18.88;;;1.90;99.90;;;;;;4999859;28;20502;-74
2023/03/31 06:23:22;;;;;;;31.90;18.58;;;1.90;99.90;;;;;;4998318;28;20058;-74
2023/03/31 06:25:50;;;;;;;31.00;18.25;;;2.00;99.90;;;;;;5005685;28;20050;-74
2023/03/31 06:28:18;;;;;;;29.67;18.80;;;2.10;99.90;;;;;;5009248;28;20050;-73
2023/03/31 06:30:46;;;;;;;33.20;19.17;;;2.20;99.90;;;;;;4994750;28;20046;-74
2023/03/31 06:33:15;;;;;;;30.25;17.27;;;2.30;99.90;;;;;;4991754;28;20055;-74
2023/03/31 06:35:42;;;;;;;38.33;18.50;;;2.30;99.90;;;;;;4999921;28;20077;-74
2023/03/31 06:38:11;;;;;;;34.70;19.23;;;2.40;99.90;;;;;;4995459;28;20081;-74
2023/03/31 06:40:40;;;;;;;32.58;19.38;;;2.40;99.90;;;;;;5001219;28;20099;-74
2023/03/31 06:43:07;;;;;;;34.63;19.55;;;2.60;99.90;;;;;;4998404;28;20057;-74
2023/03/31 06:45:37;;;;;;;31.52;18.98;;;2.70;99.90;;;;;;5025073;28;20115;-72
2023/03/31 06:48:06;;;;;;;29.48;18.45;;;3.00;99.90;;;;;;4998952;28;20065;-73
2023/03/31 06:50:34;;;;;;;31.80;19.23;;;3.20;99.90;;;;;;5003799;28;20050;-74
2023/03/31 06:53:02;;;;;;;36.28;19.27;;;3.30;99.90;;;;;;5008699;28;20054;-76
2023/03/31 06:55:32;;;;;;;28.85;18.67;;;3.40;99.90;;;;;;5007447;28;20050;-75
2023/03/31 06:58:03;;;;;;;30.52;18.08;;;3.70;99.90;;;;;;5008158;28;20052;-74
2023/03/31 07:00:32;;;;;;;34.50;19.77;;;3.80;99.90;;;;;;5007019;28;20053;-74
2023/03/31 07:03:00;;;;;;;31.42;19.77;;;3.90;99.90;;;;;;5007148;28;20041;-76
2023/03/31 07:05:28;;;;;;;25.48;17.15;;;3.80;99.90;;;;;;5005389;28;20045;-74
2023/03/31 07:07:59;;;;;;;31.05;18.65;;;3.70;99.90;;;;;;5009909;28;20074;-77
2023/03/31 07:10:32;;;;;;;34.90;20.33;;;3.60;99.90;;;;;;4996232;28;20394;-76
2023/03/31 07:13:00;;;;;;;29.40;18.85;;;3.50;99.90;;;;;;4999840;28;20476;-76
2023/03/31 07:15:32;;;;;;;28.60;18.38;;;3.50;99.90;;;;;;4999443;28;20053;-74
2023/03/31 07:18:09;;;;;;;30.27;18.05;;;3.50;99.90;;;;;;5003014;28;20077;-74
2023/03/31 07:20:37;;;;;;;29.15;17.70;;;3.60;99.90;;;;;;5004369;28;20576;-76
2023/03/31 07:23:07;;;;;;;32.72;20.13;;;3.70;99.90;;;;;;5007735;28;20038;-73
2023/03/31 07:25:36;;;;;;;30.05;19.17;;;3.80;99.90;;;;;;5010132;28;20050;-73
2023/03/31 07:28:06;;;;;;;28.50;18.02;;;4.00;99.90;;;;;;5006582;28;20065;-75
2023/03/31 07:30:36;;;;;;;27.52;18.58;;;4.30;99.90;;;;;;5008941;28;20054;-75
2023/03/31 07:33:08;;;;;;;30.27;16.67;;;4.50;99.90;;;;;;5010731;28;20054;-77
2023/03/31 07:35:39;;;;;;;32.17;18.23;;;4.60;99.90;;;;;;4999914;28;20054;-76
2023/03/31 07:38:11;;;;;;;27.20;17.52;;;4.50;99.90;;;;;;5003638;28;20125;-76
2023/03/31 07:40:45;;;;;;;25.30;17.83;;;4.50;99.90;;;;;;5008862;28;20054;-75
2023/03/31 07:43:13;;;;;;;28.25;17.80;;;4.60;99.90;;;;;;5002179;28;20081;-76
2023/03/31 07:45:42;;;;;;;27.05;17.60;;;4.60;99.90;;;;;;4992794;28;20055;-76
2023/03/31 07:48:09;;;;;;;20.92;13.30;;;4.70;99.90;;;;;;5003888;28;20058;-78
2023/03/31 07:50:37;;;;;;;18.73;13.05;;;4.80;99.90;;;;;;5007034;28;20421;-78
2023/03/31 07:53:08;;;;;;;17.95;12.68;;;4.90;99.90;;;;;;5008237;28;20499;-78
2023/03/31 07:55:36;;;;;;;19.95;13.75;;;4.90;99.90;;;;;;5006232;28;20049;-78
2023/03/31 07:58:05;;;;;;;22.23;14.35;;;4.90;99.90;;;;;;5005735;28;20418;-78
2023/03/31 08:00:33;;;;;;;23.23;15.30;;;5.00;99.90;;;;;;5015274;28;20057;-78
2023/03/31 08:03:00;;;;;;;22.90;15.20;;;4.90;99.90;;;;;;5011254;28;20042;-79
2023/03/31 08:05:28;;;;;;;24.40;15.88;;;5.00;99.90;;;;;;5010293;28;20049;-78
2023/03/31 08:07:56;;;;;;;27.30;17.45;;;5.00;99.90;;;;;;5004269;28;20054;-75
2023/03/31 08:10:28;;;;;;;34.42;16.70;;;5.00;99.90;;;;;;5005151;28;20045;-75
2023/03/31 08:12:56;;;;;;;29.98;15.98;;;5.00;99.90;;;;;;5005304;28;20056;-75
2023/03/31 08:15:25;;;;;;;35.00;17.25;;;5.00;99.90;;;;;;5011777;28;20146;-78
2023/03/31 08:17:52;;;;;;;26.38;15.82;;;4.90;99.90;;;;;;5002681;28;20050;-78
2023/03/31 08:20:20;;;;;;;25.88;16.27;;;5.00;99.90;;;;;;5008828;28;20137;-77
2023/03/31 08:22:48;;;;;;;27.98;16.98;;;5.00;99.90;;;;;;5003891;28;20062;-79
2023/03/31 08:25:15;;;;;;;25.20;16.90;;;5.10;99.90;;;;;;4992006;28;20133;-78
2023/03/31 08:27:43;;;;;;;28.40;16.60;;;5.20;99.90;;;;;;4990736;28;20050;-77
2023/03/31 08:30:12;;;;;;;30.05;17.17;;;5.50;99.90;;;;;;4992745;28;20058;-74
2023/03/31 08:32:45;;;;;;;23.30;15.20;;;5.70;99.90;;;;;;4997081;28;20064;-77
2023/03/31 08:35:16;;;;;;;22.42;15.73;;;5.70;99.90;;;;;;5006355;28;20535;-76
2023/03/31 08:37:46;;;;;;;24.45;14.80;;;5.60;99.90;;;;;;4999057;28;20042;-76
2023/03/31 08:40:19;;;;;;;28.50;15.32;;;5.60;99.90;;;;;;5008341;28;20060;-76
2023/03/31 08:42:53;;;;;;;27.08;17.00;;;5.60;99.90;;;;;;5002853;28;20062;-76
2023/03/31 08:45:25;;;;;;;25.10;16.40;;;5.40;99.90;;;;;;4999372;28;20392;-76
2023/03/31 08:48:01;;;;;;;26.85;17.35;;;5.10;99.90;;;;;;5006915;28;20069;-76
2023/03/31 08:50:33;;;;;;;23.88;15.65;;;4.80;99.90;;;;;;4999943;28;20101;-80
2023/03/31 08:53:10;;;;;;;30.48;16.85;;;4.70;99.90;;;;;;4995741;28;20050;-79
2023/03/31 08:55:46;;;;;;;23.90;15.85;;;4.60;99.90;;;;;;5015677;28;20058;-74
2023/03/31 08:58:34;;;;;;;24.48;15.80;;;4.50;99.90;;;;;;5005384;28;20692;-76
2023/03/31 09:01:12;;;;;;;23.30;14.77;;;4.50;99.90;;;;;;5008453;28;20522;-74
2023/03/31 09:03:54;;;;;;;15.45;10.57;;;4.60;99.90;;;;;;4989935;28;20057;-77
2023/03/31 09:06:27;;;;;;;22.33;11.45;;;4.70;99.90;;;;;;5003055;28;20101;-75
2023/03/31 09:08:58;;;;;;;;;;;4.80;99.90;;;;;;5004396;28;20050;-75
2023/03/31 09:11:34;;;;;;;13.73;9.77;;;4.90;99.90;;;;;;5008071;28;20297;-75
2023/03/31 09:14:24;;;;;;;13.80;8.70;;;4.90;99.90;;;;;;4992968;28;20050;-75
2023/03/31 09:17:02;;;;;;;16.52;9.40;;;4.70;99.90;;;;;;4992723;28;20104;-74
2023/03/31 09:19:38;;;;;;;14.15;9.50;;;4.70;99.90;;;;;;5017597;28;20568;-73
2023/03/31 09:22:14;;;;;;;14.15;10.20;;;4.60;99.90;;;;;;5002241;28;20136;-74
2023/03/31 09:24:52;;;;;;;13.68;8.85;;;4.70;99.90;;;;;;5005921;28;20069;-73
2023/03/31 09:27:21;;;;;;;13.35;8.93;;;4.80;99.90;;;;;;4988013;28;20144;-73
2023/03/31 09:29:53;;;;;;;12.93;8.23;;;4.90;99.90;;;;;;4991791;28;20041;-73
2023/03/31 09:32:25;;;;;;;10.97;8.50;;;5.30;99.90;;;;;;5004357;28;20108;-74
2023/03/31 09:34:59;;;;;;;10.00;7.35;;;5.40;99.90;;;;;;5005124;28;20088;-76
2023/03/31 09:37:31;;;;;;;15.15;8.82;;;5.40;99.90;;;;;;5009901;28;20049;-75
2023/03/31 09:40:06;;;;;;;9.95;8.05;;;5.50;99.90;;;;;;5009074;28;20427;-76
2023/03/31 09:42:35;;;;;;;10.10;8.73;;;5.70;99.90;;;;;;5011740;28;20054;-76
2023/03/31 09:45:03;;;;;;;11.48;8.90;;;5.80;99.90;;;;;;5012125;28;20054;-76
2023/03/31 09:47:38;;;;;;;13.85;9.07;;;5.90;99.90;;;;;;5010808;28;20593;-76
2023/03/31 09:50:09;;;;;;;13.27;8.30;;;5.80;99.90;;;;;;5008845;28;20056;-76
2023/03/31 09:52:40;;;;;;;13.35;9.95;;;5.60;99.90;;;;;;5006498;28;20425;-74
2023/03/31 09:55:20;;;;;;;15.05;10.45;;;5.50;99.90;;;;;;5000970;28;20046;-74
2023/03/31 09:57:48;;;;;;;19.02;12.45;;;5.40;99.90;;;;;;5009851;28;20049;-73
2023/03/31 10:00:20;;;;;;;16.08;10.80;;;5.20;99.90;;;;;;5008470;28;20046;-74
2023/03/31 10:03:00;;;;;;;16.70;10.18;;;5.00;99.90;;;;;;5009803;28;20061;-76
2023/03/31 10:05:36;;;;;;;14.07;10.48;;;4.90;99.90;;;;;;4990656;28;20129;-74
2023/03/31 10:08:25;;;;;;;14.70;10.60;;;4.70;99.90;;;;;;5011839;28;20107;-75
2023/03/31 10:10:55;;;;;;;15.50;10.60;;;4.60;99.90;;;;;;5011695;28;20048;-74
2023/03/31 10:13:29;;;;;;;20.55;11.88;;;4.60;99.90;;;;;;4999567;28;20053;-75
2023/03/31 10:16:05;;;;;;;16.90;11.95;;;4.70;99.90;;;;;;5005035;28;20046;-74
2023/03/31 10:18:35;;;;;;;17.83;11.45;;;4.70;99.90;;;;;;5013152;28;20058;-73
2023/03/31 10:21:07;;;;;;;16.85;11.30;;;4.70;99.90;;;;;;4997591;28;20065;-73
2023/03/31 10:23:36;;;;;;;18.63;11.50;;;4.60;99.90;;;;;;5005258;28;20056;-74
2023/03/31 10:26:05;;;;;;;16.73;10.77;;;4.50;99.90;;;;;;5009607;28;20050;-75
2023/03/31 10:28:36;;;;;;;17.38;10.57;;;4.50;99.90;;;;;;5010090;28;20542;-76
2023/03/31 10:31:07;;;;;;;18.65;10.73;;;4.50;99.90;;;;;;5004088;28;20683;-78
2023/03/31 10:33:41;;;;;;;16.48;10.88;;;4.50;99.90;;;;;;5015472;28;20522;-74
2023/03/31 10:36:20;;;;;;;15.05;9.82;;;4.50;99.90;;;;;;5011946;28;20050;-75
2023/03/31 10:38:50;;;;;;;11.75;9.10;;;4.50;99.90;;;;;;4993040;28;20050;-74
2023/03/31 10:41:21;;;;;;;13.60;9.35;;;4.60;99.90;;;;;;4999037;28;20119;-75
2023/03/31 10:43:52;;;;;;;20.38;10.80;;;4.70;99.90;;;;;;5024009;28;20046;-76
2023/03/31 10:46:20;;;;;;;12.85;9.10;;;5.00;99.90;;;;;;5013926;28;20141;-78
2023/03/31 10:48:47;;;;;;;17.23;10.07;;;5.10;99.90;;;;;;5008184;28;20045;-76
2023/03/31 10:51:21;;;;;;;13.77;8.93;;;5.40;99.90;;;;;;4994144;28;20053;-77
2023/03/31 10:53:53;;;;;;;12.73;9.20;;;5.50;99.90;;;;;;5000000;28;20139;-73
2023/03/31 10:56:38;;;;;;;11.45;8.50;;;5.60;99.90;;;;;;4992300;28;20054;-77
2023/03/31 10:59:36;;;;;;;14.52;9.07;;;5.70;99.90;;;;;;5003512;28;20111;-76
2023/03/31 11:02:30;;;;;;;13.23;9.07;;;5.90;99.90;;;;;;5006515;28;20057;-77
2023/03/31 11:05:09;;;;;;;14.30;8.80;;;6.30;99.90;;;;;;4996981;28;20457;-77
2023/03/31 11:07:52;;;;;;;9.52;8.35;;;7.40;99.90;;;;;;5009983;28;20073;-75
2023/03/31 11:10:39;;;;;;;13.85;8.68;;;8.90;99.90;;;;;;5002525;28;20045;-79
2023/03/31 11:13:13;;;;;;;12.48;8.30;;;10.00;99.90;;;;;;5007107;28;20054;-76
2023/03/31 11:15:54;;;;;;;13.77;8.10;;;10.40;99.90;;;;;;5007218;28;20093;-76
2023/03/31 11:18:40;;;;;;;10.73;7.30;;;10.10;99.90;;;;;;5004627;28;20132;-75
2023/03/31 11:21:21;;;;;;;9.80;7.68;;;9.80;99.90;;;;;;5006540;28;20049;-79
2023/03/31 11:24:05;;;;;;;13.85;7.70;;;9.50;99.90;;;;;;5006382;28;20046;-76
2023/03/31 11:26:49;;;;;;;15.18;7.72;;;9.00;99.90;;;;;;5004948;28;20049;-78
2023/03/31 11:29:32;;;;;;;14.18;7.80;;;8.60;99.90;;;;;;5003902;28;20149;-76
2023/03/31 11:32:16;;;;;;;;;;;8.10;99.90;;;;;;5011867;28;20057;-75
2023/03/31 11:35:03;;;;;;;11.10;7.75;;;7.90;99.90;;;;;;5013294;28;20470;-74
2023/03/31 11:37:51;;;;;;;9.25;8.07;;;7.70;99.90;;;;;;5013600;28;20532;-78
2023/03/31 11:40:39;;;;;;;14.63;8.40;;;7.40;99.90;;;;;;5009900;28;20046;-77
2023/03/31 11:43:14;;;;;;;16.13;8.50;;;7.20;99.90;;;;;;4993649;28;20711;-75
2023/03/31 11:45:47;;;;;;;15.27;8.13;;;7.10;99.90;;;;;;5016645;28;20049;-76
2023/03/31 11:48:22;;;;;;;17.52;8.95;;;7.20;99.90;;;;;;5001380;28;20050;-74
2023/03/31 11:50:51;;;;;;;14.07;9.65;;;7.30;99.90;;;;;;5023142;28;20514;-75
2023/03/31 11:53:22;;;;;;;18.27;9.43;;;7.30;99.90;;;;;;5016837;28;20502;-76
2023/03/31 11:55:53;;;;;;;22.02;9.30;;;7.10;99.90;;;;;;5005394;28;20054;-74
2023/03/31 11:58:27;;;;;;;18.35;9.73;;;7.10;99.90;;;;;;4998441;28;20070;-74
2023/03/31 12:01:01;;;;;;;14.10;10.52;;;7.10;99.90;;;;;;5006675;28;20092;-75
2023/03/31 12:03:38;;;;;;;14.05;9.45;;;7.00;99.90;;;;;;5015274;28;20049;-76
2023/03/31 12:06:16;;;;;;;13.93;10.07;;;6.80;99.90;;;;;;5000030;28;20462;-75
2023/03/31 12:08:53;;;;;;;17.02;10.25;;;6.60;99.90;;;;;;5005254;28;20056;-76
2023/03/31 12:11:36;;;;;;;19.38;10.80;;;6.40;99.90;;;;;;5004772;28;20061;-77
2023/03/31 12:14:20;;;;;;;16.93;10.30;;;6.30;99.90;;;;;;5002325;28;20058;-76
2023/03/31 12:16:51;;;;;;;;;;;6.20;99.90;;;;;;5003194;28;20081;-78
2023/03/31 12:19:26;;;;;;;19.33;10.90;;;6.30;99.90;;;;;;4997507;28;19925;-77
2023/03/31 12:22:04;;;;;;;22.17;11.82;;;6.20;99.90;;;;;;5009546;28;20418;-77
2023/03/31 12:24:34;;;;;;;26.45;15.15;;;6.00;99.90;;;;;;5011341;28;20050;-77
2023/03/31 12:27:14;;;;;;;27.67;16.65;;;5.90;99.90;;;;;;5008798;28;20084;-76
2023/03/31 12:29:46;;;;;;;32.72;17.15;;;5.70;99.90;;;;;;5009883;28;20104;-76
2023/03/31 12:32:18;;;;;;;28.47;16.83;;;5.60;99.90;;;;;;5006437;28;20053;-76
2023/03/31 12:34:56;;;;;;;27.52;18.55;;;5.40;99.90;;;;;;4984284;28;20538;-76
2023/03/31 12:38:07;;;;;;;32.85;17.55;;;5.30;99.90;;;;;;4999987;28;20119;-76
2023/03/31 12:40:50;;;;;;;26.55;17.23;;;5.30;99.90;;;;;;5012213;28;20076;-76
2023/03/31 12:43:56;;;;;;;31.45;17.58;;;5.30;99.90;;;;;;4997833;28;20488;-75
2023/03/31 12:46:56;;;;;;;28.60;15.55;;;5.40;99.90;;;;;;5008140;28;20052;-75
2023/03/31 12:50:01;;;;;;;23.67;13.35;;;5.50;99.90;;;;;;5001993;28;20050;-76
2023/03/31 12:52:43;;;;;;;17.65;11.98;;;5.70;99.90;;;;;;4982516;28;20049;-77
2023/03/31 12:55:42;;;;;;;25.92;11.35;;;5.70;99.90;;;;;;4990134;28;20485;-75
2023/03/31 12:58:45;;;;;;;13.18;9.75;;;5.70;99.90;;;;;;4962148;28;20150;-78
2023/03/31 13:01:19;;;;;;;11.82;9.05;;;5.60;99.90;;;;;;4924822;29;20059;-78
2023/03/31 13:03:53;;;;;;;18.58;8.95;;;5.50;99.90;;;;;;4932092;29;20062;-76
2023/03/31 13:06:52;;;;;;;13.38;8.35;;;5.50;99.90;;;;;;4964186;28;20042;-75
2023/03/31 13:09:44;;;;;;;11.70;7.72;;;5.40;99.90;;;;;;5009207;28;20107;-77
2023/03/31 13:12:20;;;;;;;13.23;7.75;;;5.50;99.90;;;;;;5005558;28;20061;-76